createdAt,value
2018-12-21T00:00:00.152Z,4.27
2018-12-21T00:02:28.869Z,3.87
2018-12-21T00:04:57.437Z,4.17
2018-12-21T00:07:25.976Z,4.53
2018-12-21T00:09:54.614Z,5.63
2018-12-21T00:12:23.326Z,4.60
2018-12-21T00:14:55.987Z,4.63
2018-12-21T00:17:24.826Z,4.40
2018-12-21T00:19:53.473Z,4.77
2018-12-21T00:22:22.009Z,4.67
2018-12-21T00:24:50.521Z,4.00
2018-12-21T00:27:19.300Z,4.30
2018-12-21T00:29:47.856Z,4.00
2018-12-21T00:32:21.808Z,4.23
2018-12-21T00:34:55.770Z,4.13
2018-12-21T00:37:29.703Z,3.60
2018-12-21T00:40:03.648Z,4.27
2018-12-21T00:42:37.367Z,3.70
2018-12-21T00:45:08.990Z,3.57
2018-12-21T00:47:37.601Z,3.10
2018-12-21T00:50:08.358Z,4.53
2018-12-21T00:52:36.925Z,3.80
2018-12-21T00:55:05.912Z,4.30
2018-12-21T00:57:34.515Z,3.47
2018-12-21T01:00:03.445Z,3.83
2018-12-21T01:02:32.078Z,4.13
2018-12-21T01:05:00.703Z,4.03
2018-12-21T01:07:29.397Z,3.70
2018-12-21T01:09:58.915Z,5.07
2018-12-21T01:12:27.609Z,3.70
2018-12-21T01:14:56.378Z,3.63
2018-12-21T01:17:25.019Z,3.50
2018-12-21T01:19:53.761Z,3.77
2018-12-21T01:22:22.993Z,3.63
2018-12-21T01:24:52.596Z,3.40
2018-12-21T01:27:21.239Z,3.30
2018-12-21T01:29:49.867Z,4.23
2018-12-21T01:32:18.507Z,3.23
2018-12-21T01:34:47.080Z,3.20
2018-12-21T01:37:15.646Z,3.20
2018-12-21T01:39:44.326Z,3.13
2018-12-21T01:42:12.960Z,3.13
2018-12-21T01:44:46.885Z,3.03
2018-12-21T01:47:15.675Z,2.67
2018-12-21T01:49:44.474Z,3.47
2018-12-21T01:52:13.078Z,2.90
2018-12-21T01:54:41.653Z,3.03
2018-12-21T01:57:10.972Z,2.80
2018-12-21T01:59:39.558Z,2.40
2018-12-21T02:02:08.240Z,2.70
2018-12-21T02:04:36.878Z,2.70
2018-12-21T02:07:05.411Z,2.43
2018-12-21T02:09:33.959Z,2.93
2018-12-21T02:12:02.520Z,2.20
2018-12-21T02:14:31.058Z,2.40
2018-12-21T02:16:59.606Z,2.37
2018-12-21T02:19:28.170Z,2.03
2018-12-21T02:21:56.700Z,2.90
2018-12-21T02:24:25.270Z,2.60
2018-12-21T02:26:53.865Z,2.23
2018-12-21T02:29:23.372Z,2.57
2018-12-21T02:31:52.782Z,2.70
2018-12-21T02:37:00.763Z,2.40
2018-12-21T02:39:29.335Z,2.67
2018-12-21T02:41:57.951Z,2.47
2018-12-21T02:44:26.576Z,2.23
2018-12-21T02:46:55.152Z,2.20
2018-12-21T02:49:23.740Z,2.70
2018-12-21T02:51:52.272Z,2.20
2018-12-21T02:54:20.812Z,2.13
2018-12-21T02:56:49.393Z,2.17
2018-12-21T02:59:19.377Z,2.70
2018-12-21T03:01:48.394Z,2.40
2018-12-21T03:04:16.972Z,2.00
2018-12-21T03:06:45.534Z,2.17
2018-12-21T03:09:14.168Z,2.17
2018-12-21T03:11:42.824Z,1.97
2018-12-21T03:14:11.410Z,2.27
2018-12-21T03:16:39.959Z,2.43
2018-12-21T03:19:08.514Z,1.63
2018-12-21T03:21:37.123Z,1.83
2018-12-21T03:24:05.723Z,1.93
2018-12-21T03:26:34.439Z,1.90
2018-12-21T03:29:03.043Z,2.50
2018-12-21T03:31:31.763Z,2.47
2018-12-21T03:34:00.352Z,1.87
2018-12-21T03:36:29.111Z,1.80
2018-12-21T03:38:57.762Z,2.10
2018-12-21T03:41:26.483Z,2.70
2018-12-21T03:43:55.053Z,1.63
2018-12-21T03:46:23.860Z,2.23
2018-12-21T03:48:52.680Z,1.80
2018-12-21T03:51:21.234Z,2.20
2018-12-21T03:53:49.872Z,2.00
2018-12-21T03:56:18.666Z,2.00
2018-12-21T03:58:47.279Z,1.97
2018-12-21T04:01:15.922Z,2.23
2018-12-21T04:03:44.514Z,2.30
2018-12-21T04:06:13.492Z,2.00
2018-12-21T04:08:42.165Z,1.73
2018-12-21T04:11:10.762Z,2.90
2018-12-21T04:13:39.343Z,2.10
2018-12-21T04:16:07.891Z,2.00
2018-12-21T04:18:36.473Z,2.30
2018-12-21T04:21:05.053Z,2.50
2018-12-21T04:23:33.615Z,2.63
2018-12-21T04:26:02.252Z,2.30
2018-12-21T04:28:30.889Z,2.07
2018-12-21T04:30:59.414Z,2.40
2018-12-21T04:33:27.997Z,2.00
2018-12-21T04:35:56.578Z,2.03
2018-12-21T04:38:25.183Z,1.97
2018-12-21T04:40:53.798Z,2.17
2018-12-21T04:43:22.823Z,2.53
2018-12-21T04:45:51.402Z,2.20
2018-12-21T04:48:20.378Z,2.50
2018-12-21T04:50:48.972Z,2.57
2018-12-21T04:53:17.558Z,2.07
2018-12-21T04:55:46.108Z,2.27
2018-12-21T04:58:14.615Z,2.20
2018-12-21T05:00:43.151Z,2.23
2018-12-21T05:03:11.698Z,3.00
2018-12-21T05:05:40.260Z,2.43
2018-12-21T05:08:08.840Z,2.80
2018-12-21T05:10:37.543Z,2.57
2018-12-21T05:13:06.106Z,2.40
2018-12-21T05:15:34.843Z,3.07
2018-12-21T05:18:03.933Z,2.60
2018-12-21T05:20:35.776Z,2.90
2018-12-21T05:23:04.450Z,3.80
2018-12-21T05:25:32.987Z,3.72
2018-12-21T05:28:01.548Z,2.90
2018-12-21T05:30:30.109Z,2.93
2018-12-21T05:32:58.696Z,3.13
2018-12-21T05:35:27.408Z,3.17
2018-12-21T05:37:56.026Z,3.17
2018-12-21T05:40:24.875Z,3.00
2018-12-21T05:42:53.397Z,2.87
2018-12-21T05:45:21.940Z,2.83
2018-12-21T05:47:50.534Z,3.30
2018-12-21T05:50:28.971Z,3.27
2018-12-21T05:53:00.863Z,3.40
2018-12-21T05:55:29.775Z,3.20
2018-12-21T05:57:58.336Z,2.80
2018-12-21T06:00:27.108Z,3.47
2018-12-21T06:02:55.809Z,3.23
2018-12-21T06:05:24.582Z,3.53
2018-12-21T06:07:53.166Z,3.30
2018-12-21T06:10:21.750Z,3.10
2018-12-21T06:12:50.386Z,3.40
2018-12-21T06:15:19.043Z,3.30
2018-12-21T06:17:47.854Z,2.97
2018-12-21T06:20:16.578Z,2.67
2018-12-21T06:22:45.103Z,3.17
2018-12-21T06:25:13.701Z,3.03
2018-12-21T06:27:42.221Z,3.60
2018-12-21T06:30:10.778Z,3.50
2018-12-21T06:32:40.123Z,3.37
2018-12-21T06:35:08.840Z,3.50
2018-12-21T06:37:37.428Z,3.23
2018-12-21T06:40:06.242Z,3.67
2018-12-21T06:42:34.961Z,3.00
2018-12-21T06:45:04.124Z,3.33
2018-12-21T06:47:33.750Z,3.50
2018-12-21T06:50:02.617Z,3.30
2018-12-21T06:52:33.790Z,3.03
2018-12-21T06:55:03.856Z,3.67
2018-12-21T06:57:32.537Z,3.67
2018-12-21T07:00:01.191Z,3.50
2018-12-21T07:02:29.848Z,4.25
2018-12-21T07:04:58.491Z,3.30
2018-12-21T07:07:51.450Z,3.27
2018-12-21T07:10:20.091Z,3.60
2018-12-21T07:12:48.618Z,3.67
2018-12-21T07:15:17.285Z,3.50
2018-12-21T07:17:46.336Z,3.27
2018-12-21T07:20:15.082Z,3.53
2018-12-21T07:22:43.813Z,3.60
2018-12-21T07:25:12.582Z,3.80
2018-12-21T07:27:41.197Z,3.57
2018-12-21T07:30:12.117Z,3.90
2018-12-21T07:32:40.730Z,4.13
2018-12-21T07:35:12.387Z,3.00
2018-12-21T07:37:41.266Z,3.20
2018-12-21T07:40:10.429Z,3.00
2018-12-21T07:42:39.140Z,3.10
2018-12-21T07:45:09.574Z,2.60
2018-12-21T07:47:38.332Z,3.70
2018-12-21T07:50:09.433Z,3.00
2018-12-21T07:52:38.069Z,3.67
2018-12-21T07:55:08.770Z,3.17
2018-12-21T07:57:37.561Z,3.10
2018-12-21T08:00:11.318Z,3.20
2018-12-21T08:02:39.969Z,3.60
2018-12-21T08:05:08.755Z,3.47
2018-12-21T08:07:37.348Z,3.67
2018-12-21T08:10:10.741Z,2.87
2018-12-21T08:12:39.217Z,3.30
2018-12-21T08:15:07.932Z,2.80
2018-12-21T08:17:36.715Z,2.77
2018-12-21T08:20:08.226Z,3.40
2018-12-21T08:25:27.758Z,2.30
2018-12-21T08:27:56.424Z,2.50
2018-12-21T08:30:25.158Z,2.10
2018-12-21T08:32:53.812Z,1.70
2018-12-21T08:35:22.388Z,1.90
2018-12-21T08:37:50.966Z,1.53
2018-12-21T08:40:19.609Z,1.40
2018-12-21T08:42:48.171Z,1.47
2018-12-21T08:45:17.151Z,1.50
2018-12-21T08:47:46.877Z,1.40
2018-12-21T08:50:15.580Z,1.40
2018-12-21T08:52:44.149Z,1.50
2018-12-21T08:55:12.724Z,1.30
2018-12-21T08:57:41.495Z,2.03
2018-12-21T09:00:12.420Z,1.80
2018-12-21T09:02:41.069Z,1.10
2018-12-21T09:05:10.349Z,1.20
2018-12-21T09:07:42.456Z,0.80
2018-12-21T09:10:11.736Z,1.10
2018-12-21T09:12:40.431Z,1.10
2018-12-21T09:15:13.978Z,0.97
2018-12-21T09:17:42.542Z,1.00
2018-12-21T09:20:11.707Z,1.10
2018-12-21T09:22:40.430Z,2.30
2018-12-21T09:25:09.450Z,2.70
2018-12-21T09:27:37.991Z,2.83
2018-12-21T09:30:10.706Z,1.90
2018-12-21T09:32:39.286Z,1.10
2018-12-21T09:35:07.974Z,1.23
2018-12-21T09:37:36.491Z,0.97
2018-12-21T09:40:08.303Z,0.90
2018-12-21T09:42:36.843Z,1.33
2018-12-21T09:45:06.159Z,0.80
2018-12-21T09:47:35.029Z,0.80
2018-12-21T09:50:04.090Z,0.90
2018-12-21T09:52:32.627Z,0.77
2018-12-21T09:55:01.545Z,0.70
2018-12-21T09:57:30.278Z,0.90
2018-12-21T09:59:58.858Z,0.63
2018-12-21T10:02:35.526Z,0.90
2018-12-21T10:04:58.254Z,0.70
2018-12-21T10:07:27.702Z,0.70
2018-12-21T10:09:56.553Z,0.60
2018-12-21T10:12:25.373Z,0.60
2018-12-21T10:14:53.931Z,0.50
2018-12-21T10:17:22.490Z,1.13
2018-12-21T10:19:51.041Z,0.53
2018-12-21T10:22:20.003Z,0.50
2018-12-21T10:24:48.773Z,0.60
2018-12-21T10:27:17.454Z,0.57
2018-12-21T10:29:46.073Z,0.60
2018-12-21T10:32:14.639Z,0.90
2018-12-21T10:34:43.650Z,0.80
2018-12-21T10:37:12.221Z,0.70
2018-12-21T10:39:40.776Z,0.50
2018-12-21T10:42:09.328Z,0.97
2018-12-21T10:44:38.065Z,0.90
2018-12-21T10:47:06.606Z,0.70
2018-12-21T10:49:35.383Z,0.80
2018-12-21T10:52:03.948Z,0.70
2018-12-21T10:54:32.502Z,0.60
2018-12-21T10:57:01.031Z,0.40
2018-12-21T10:59:30.016Z,0.60
2018-12-21T11:01:58.831Z,0.40
2018-12-21T11:04:27.619Z,0.50
2018-12-21T11:06:56.300Z,0.50
2018-12-21T11:09:24.824Z,0.30
2018-12-21T11:11:53.426Z,0.50
2018-12-21T11:14:22.153Z,0.53
2018-12-21T11:16:50.954Z,0.50
2018-12-21T11:19:20.322Z,0.30
2018-12-21T11:21:48.863Z,0.50
2018-12-21T11:24:17.407Z,0.37
2018-12-21T11:26:46.234Z,0.57
2018-12-21T11:29:14.774Z,0.30
2018-12-21T11:31:43.366Z,0.50
2018-12-21T11:34:11.943Z,0.40
2018-12-21T11:36:40.702Z,0.40
2018-12-21T11:39:09.235Z,0.40
2018-12-21T11:41:37.861Z,0.50
2018-12-21T11:44:06.735Z,0.60
2018-12-21T11:46:35.441Z,0.40
2018-12-21T11:49:04.127Z,0.40
2018-12-21T11:51:32.713Z,0.80
2018-12-21T11:54:01.450Z,0.60
2018-12-21T11:56:30.164Z,0.80
2018-12-21T11:58:58.742Z,0.90
2018-12-21T12:01:27.387Z,0.70
2018-12-21T12:03:55.883Z,0.70
2018-12-21T12:06:24.647Z,0.70
2018-12-21T12:08:53.423Z,0.60
2018-12-21T12:11:22.079Z,0.70
2018-12-21T12:13:50.694Z,0.50
2018-12-21T12:16:19.283Z,0.63
2018-12-21T12:18:47.862Z,0.90
2018-12-21T12:21:53.316Z,0.70
2018-12-21T12:24:22.139Z,0.60
2018-12-21T12:26:50.899Z,0.50
2018-12-21T12:29:20.168Z,0.53
2018-12-21T12:31:48.795Z,0.90
2018-12-21T12:34:17.324Z,0.73
2018-12-21T12:36:45.860Z,0.70
2018-12-21T12:39:14.529Z,0.53
2018-12-21T12:41:43.100Z,0.80
2018-12-21T12:44:11.706Z,1.20
2018-12-21T12:46:40.293Z,8.03
2018-12-21T12:49:08.947Z,1.40
2018-12-21T12:51:38.866Z,1.10
2018-12-21T12:54:07.679Z,0.87
2018-12-21T12:56:36.251Z,0.67
2018-12-21T12:59:05.220Z,0.70
2018-12-21T13:01:33.790Z,0.70
2018-12-21T13:04:02.395Z,0.70
2018-12-21T13:06:31.039Z,0.70
2018-12-21T13:08:59.637Z,0.50
2018-12-21T13:11:28.539Z,0.40
2018-12-21T13:13:58.170Z,0.50
2018-12-21T13:16:27.049Z,0.50
2018-12-21T13:18:55.714Z,0.90
2018-12-21T13:21:24.432Z,0.60
2018-12-21T13:23:53.322Z,0.80
2018-12-21T13:26:21.897Z,0.60
2018-12-21T13:28:50.460Z,0.90
2018-12-21T13:31:19.162Z,0.60
2018-12-21T13:33:47.863Z,0.57
2018-12-21T13:36:16.454Z,0.70
2018-12-21T13:38:45.248Z,0.53
2018-12-21T13:41:13.768Z,0.70
2018-12-21T13:43:42.890Z,0.73
2018-12-21T13:46:11.483Z,0.60
2018-12-21T13:48:40.512Z,0.70
2018-12-21T13:51:09.069Z,0.70
2018-12-21T13:53:37.623Z,0.80
2018-12-21T13:56:06.143Z,0.80
2018-12-21T13:58:34.685Z,0.60
2018-12-21T14:01:03.354Z,0.80
2018-12-21T14:03:31.993Z,0.87
2018-12-21T14:06:00.549Z,0.80
2018-12-21T14:08:29.067Z,1.30
2018-12-21T14:10:57.682Z,1.20
2018-12-21T14:13:26.179Z,0.93
2018-12-21T14:15:54.758Z,1.00
2018-12-21T14:18:23.288Z,1.40
2018-12-21T14:20:51.827Z,1.20
2018-12-21T14:23:20.359Z,1.20
2018-12-21T14:25:49.057Z,1.40
2018-12-21T14:28:17.578Z,1.30
2018-12-21T14:30:46.904Z,1.07
2018-12-21T14:33:15.592Z,1.10
2018-12-21T14:35:45.141Z,1.00
2018-12-21T14:38:13.699Z,1.23
2018-12-21T14:40:42.338Z,1.00
2018-12-21T14:43:11.599Z,1.20
2018-12-21T14:45:40.255Z,1.30
2018-12-21T14:48:09.031Z,1.27
2018-12-21T14:50:37.601Z,0.97
2018-12-21T14:53:06.149Z,1.07
2018-12-21T14:55:37.555Z,1.30
2018-12-21T14:58:05.484Z,1.43
2018-12-21T15:00:34.079Z,1.53
2018-12-21T15:03:02.781Z,1.30
2018-12-21T15:05:31.562Z,1.20
2018-12-21T15:08:00.268Z,1.10
2018-12-21T15:10:29.060Z,0.90
2018-12-21T15:12:57.775Z,1.10
2018-12-21T15:15:26.411Z,0.97
2018-12-21T15:17:54.969Z,1.00
2018-12-21T15:20:23.610Z,1.03
2018-12-21T15:22:52.290Z,1.17
2018-12-21T15:25:20.972Z,1.07
2018-12-21T15:27:49.975Z,1.00
2018-12-21T15:30:18.520Z,1.13
2018-12-21T15:32:47.152Z,1.33
2018-12-21T15:35:15.837Z,1.00
2018-12-21T15:37:44.375Z,0.70
2018-12-21T15:40:12.907Z,0.73
2018-12-21T15:42:41.442Z,0.90
2018-12-21T15:45:10.438Z,0.87
2018-12-21T15:47:39.095Z,1.30
2018-12-21T15:50:10.340Z,1.13
2018-12-21T15:52:39.047Z,1.00
2018-12-21T15:55:07.775Z,1.10
2018-12-21T15:57:36.309Z,1.13
2018-12-21T16:00:07.644Z,0.90
2018-12-21T16:02:36.303Z,1.57
2018-12-21T16:05:05.289Z,1.33
2018-12-21T16:07:34.284Z,1.30
2018-12-21T16:10:03.286Z,1.30
2018-12-21T16:12:32.114Z,1.30
2018-12-21T16:15:00.710Z,1.50
2018-12-21T16:17:29.816Z,2.30
2018-12-21T16:19:58.479Z,1.45
2018-12-21T16:22:27.108Z,1.40
2018-12-21T16:24:55.801Z,1.00
2018-12-21T16:27:24.378Z,1.03
2018-12-21T16:29:52.935Z,0.83
2018-12-21T16:32:21.498Z,0.90
2018-12-21T16:34:50.099Z,1.20
2018-12-21T16:37:18.625Z,1.20
2018-12-21T16:39:47.245Z,1.20
2018-12-21T16:42:15.782Z,0.80
2018-12-21T16:44:44.318Z,0.70
2018-12-21T16:47:12.854Z,0.80
2018-12-21T16:49:41.455Z,0.80
2018-12-21T16:52:10.001Z,0.70
2018-12-21T16:54:38.707Z,1.00
2018-12-21T16:57:07.275Z,0.63
2018-12-21T16:59:35.818Z,0.80
2018-12-21T17:02:04.354Z,0.97
2018-12-21T17:04:32.895Z,1.13
2018-12-21T17:07:01.551Z,0.80
2018-12-21T17:09:30.153Z,0.80
2018-12-21T17:11:58.825Z,0.60
2018-12-21T17:14:27.341Z,0.67
2018-12-21T17:16:55.895Z,0.70
2018-12-21T17:19:25.298Z,0.80
2018-12-21T17:21:53.870Z,0.90
2018-12-21T17:24:22.576Z,1.00
2018-12-21T17:26:51.735Z,0.80
2018-12-21T17:29:20.302Z,0.70
2018-12-21T17:31:48.953Z,1.10
2018-12-21T17:34:17.501Z,0.70
2018-12-21T17:36:46.615Z,0.90
2018-12-21T17:39:15.166Z,0.70
2018-12-21T17:41:43.694Z,0.80
2018-12-21T17:44:13.269Z,0.70
2018-12-21T17:46:41.990Z,0.97
2018-12-21T17:49:10.522Z,1.03
2018-12-21T17:51:39.128Z,0.90
2018-12-21T17:54:07.670Z,0.70
2018-12-21T17:56:36.265Z,0.90
2018-12-21T17:59:04.978Z,0.80
2018-12-21T18:01:35.739Z,0.87
2018-12-21T18:04:12.679Z,1.00
2018-12-21T18:06:41.242Z,0.80
2018-12-21T18:09:10.014Z,1.10
2018-12-21T18:11:38.783Z,0.90
2018-12-21T18:14:07.378Z,1.07
2018-12-21T18:16:35.931Z,1.22
2018-12-21T18:19:04.768Z,1.10
2018-12-21T18:21:41.431Z,1.00
2018-12-21T18:24:10.095Z,1.07
2018-12-21T18:26:38.936Z,1.10
2018-12-21T18:29:07.620Z,1.40
2018-12-21T18:31:59.687Z,1.10
2018-12-21T18:34:31.851Z,1.13
2018-12-21T18:37:00.678Z,0.83
2018-12-21T18:39:29.351Z,1.07
2018-12-21T18:41:57.949Z,1.13
2018-12-21T18:44:26.515Z,1.10
2018-12-21T18:46:55.276Z,1.30
2018-12-21T18:49:23.950Z,1.20
2018-12-21T18:51:52.581Z,1.40
2018-12-21T18:54:21.199Z,0.90
2018-12-21T18:57:02.180Z,1.10
2018-12-21T18:59:30.840Z,1.30
2018-12-21T19:01:59.512Z,1.00
2018-12-21T19:04:28.349Z,1.10
2018-12-21T19:06:56.882Z,1.40
2018-12-21T19:09:25.490Z,1.00
2018-12-21T19:11:54.108Z,1.20
2018-12-21T19:14:22.675Z,1.20
2018-12-21T19:16:51.619Z,1.30
2018-12-21T19:19:20.187Z,1.00
2018-12-21T19:21:48.727Z,1.23
2018-12-21T19:24:17.407Z,2.17
2018-12-21T19:26:46.393Z,0.90
2018-12-21T19:29:15.078Z,1.80
2018-12-21T19:31:43.756Z,1.20
2018-12-21T19:34:12.443Z,1.30
2018-12-21T19:36:41.130Z,1.30
2018-12-21T19:39:10.763Z,1.60
2018-12-21T19:41:39.575Z,1.60
2018-12-21T19:44:08.589Z,1.83
2018-12-21T19:46:37.491Z,1.13
2018-12-21T19:49:06.521Z,0.90
2018-12-21T19:51:35.384Z,0.80
2018-12-21T19:54:04.292Z,0.80
2018-12-21T19:56:41.531Z,0.83
2018-12-21T19:59:10.677Z,0.60
2018-12-21T20:01:39.464Z,0.80
2018-12-21T20:04:08.422Z,0.70
2018-12-21T20:06:37.093Z,0.63
2018-12-21T20:09:08.326Z,0.90
2018-12-21T20:11:39.189Z,0.80
2018-12-21T20:14:10.330Z,0.80
2018-12-21T20:16:41.009Z,0.87
2018-12-21T20:19:14.304Z,0.80
2018-12-21T20:21:45.635Z,0.80
2018-12-21T20:30:27.309Z,0.70
2018-12-21T20:33:07.285Z,0.70
2018-12-21T20:35:42.841Z,0.70
2018-12-21T20:38:21.094Z,0.70
2018-12-21T20:40:43.143Z,0.70
2018-12-21T20:43:34.517Z,0.90
2018-12-21T20:46:13.643Z,0.87
2018-12-21T20:48:46.159Z,0.63
2018-12-21T20:51:15.341Z,0.77
2018-12-21T20:53:45.821Z,0.93
2018-12-21T20:56:14.800Z,0.70
2018-12-21T20:58:48.572Z,0.90
2018-12-21T21:01:17.448Z,0.77
2018-12-21T21:03:46.294Z,0.90
2018-12-21T21:06:14.914Z,0.87
2018-12-21T21:08:43.751Z,0.70
2018-12-21T21:11:12.820Z,0.80
2018-12-21T21:13:41.687Z,0.73
2018-12-21T21:16:10.523Z,0.90
2018-12-21T21:18:39.224Z,0.80
2018-12-21T21:21:08.087Z,0.97
2018-12-21T21:23:36.795Z,0.80
2018-12-21T21:26:05.997Z,0.70
2018-12-21T21:28:35.066Z,0.70
2018-12-21T21:31:04.714Z,1.00
2018-12-21T21:33:36.061Z,1.10
2018-12-21T21:36:05.129Z,1.03
2018-12-21T21:38:35.958Z,0.80
2018-12-21T21:41:06.232Z,0.93
2018-12-21T21:43:36.985Z,0.80
2018-12-21T21:46:05.992Z,0.77
2018-12-21T21:48:36.056Z,0.80
2018-12-21T21:51:07.533Z,1.17
2018-12-21T21:53:45.400Z,0.80
2018-12-21T21:56:16.045Z,0.83
2018-12-21T21:58:46.027Z,0.67
2018-12-21T22:01:14.663Z,0.80
2018-12-21T22:03:43.434Z,0.80
2018-12-21T22:06:12.183Z,0.83
2018-12-21T22:08:43.649Z,1.00
2018-12-21T22:11:14.979Z,0.83
2018-12-21T22:13:45.208Z,0.83
2018-12-21T22:16:13.780Z,0.90
2018-12-21T22:18:48.491Z,0.80
2018-12-21T22:21:18.323Z,1.00
2018-12-21T22:23:47.602Z,0.90
2018-12-21T22:26:20.761Z,0.90
2018-12-21T22:28:49.936Z,0.80
2018-12-21T22:31:25.705Z,0.93
2018-12-21T22:33:56.125Z,1.00
2018-12-21T22:36:34.205Z,0.77
2018-12-21T22:39:04.548Z,0.90
2018-12-21T22:41:34.128Z,0.90
2018-12-21T22:44:10.585Z,0.90
2018-12-21T22:46:41.278Z,0.80
2018-12-21T22:49:10.976Z,0.77
2018-12-21T22:51:41.122Z,1.03
2018-12-21T22:54:11.484Z,0.90
2018-12-21T22:56:51.076Z,0.70
2018-12-21T22:59:20.851Z,1.33
2018-12-21T23:01:51.111Z,0.80
2018-12-21T23:04:20.382Z,1.20
2018-12-21T23:06:49.170Z,1.20
2018-12-21T23:09:17.905Z,1.00
2018-12-21T23:11:48.822Z,0.90
2018-12-21T23:14:18.975Z,1.00
2018-12-21T23:16:48.154Z,1.10
2018-12-21T23:19:16.917Z,1.00
2018-12-21T23:21:45.692Z,1.20
2018-12-21T23:24:14.572Z,1.20
2018-12-21T23:26:43.431Z,1.30
2018-12-21T23:29:12.096Z,0.93
2018-12-21T23:31:41.008Z,0.90
2018-12-21T23:34:10.553Z,1.13
2018-12-21T23:36:39.404Z,1.00
2018-12-21T23:39:08.326Z,1.10
2018-12-21T23:41:36.963Z,1.40
2018-12-21T23:44:05.746Z,1.00
2018-12-21T23:46:34.613Z,0.87
2018-12-21T23:49:03.327Z,1.10
2018-12-21T23:51:32.358Z,1.00
2018-12-21T23:54:01.220Z,0.93
2018-12-21T23:56:29.845Z,1.03
2018-12-21T23:58:58.593Z,1.00
